Latest Weather Observations for Fawkner Beacon

IDV60901

Issued at 1:31 am EDT Thursday 28 January 2021 (issued every 10 minutes, with the page automatically refreshed every 10 minutes)

About weather observations | Map of Melbourne area stations | Latest observations for Melbourne area | Other Formats
Station Details ID: 086376 Name: FAWKNER BEACON Lat: -37.95 Lon: 144.93 Height: 17.0 m
Data from the previous 72 hours. | See also: Recent months at Fawkner Beacon
Date/Time
EDT
Temp
°C
App
Temp
°C
Dew
Point
°C
Rel
Hum
%
Delta-T
°C
Wind Press
QNH
hPa
Press
MSL
hPa
Rain since
9am
mm
Dir  Spd
km/h
Gust
km/h
Spd
kts
Gust
kts
28/01:30am - - - - - E 46 57 25 31 - - -
28/01:00am - - - - - E 56 70 30 38 - - -
28/12:30am - - - - - E 56 78 30 42 - - -
28/12:06am - - - - - E 54 78 29 42 - - -
28/12:00am - - - - - E 54 70 29 38 - - -
 
Date/Time
EDT
Temp
°C
App
Temp
°C
Dew
Point
°C
Rel
Hum
%
Delta-T
°C
Wind Press
QNH
hPa
Press
MSL
hPa
Rain since
9am
mm
Dir  Spd
km/h
Gust
km/h
Spd
kts
Gust
kts
27/11:33pm - - - - - E 57 76 31 41 - - -
27/11:30pm - - - - - E 59 76 32 41 - - -
27/11:00pm - - - - - E 57 76 31 41 - - -
27/10:59pm - - - - - E 57 76 31 41 - - -
27/10:30pm - - - - - E 59 72 32 39 - - -
27/10:14pm - - - - - E 59 78 32 42 - - -
27/10:00pm - - - - - E 61 72 33 39 - - -
27/09:30pm - - - - - E 59 72 32 39 - - -
27/09:00pm - - - - - E 54 69 29 37 - - -
27/08:48pm - - - - - E 57 76 31 41 - - -
27/08:30pm - - - - - E 57 70 31 38 - - -
27/08:00pm - - - - - ESE 57 69 31 37 - - -
27/07:30pm - - - - - ESE 50 61 27 33 - - -
27/07:00pm - - - - - ESE 50 59 27 32 - - -
27/06:30pm - - - - - ESE 44 52 24 28 - - -
27/06:00pm - - - - - ESE 39 46 21 25 - - -
27/05:50pm - - - - - SE 35 44 19 24 - - -
27/05:30pm - - - - - S 32 39 17 21 - - -
27/05:00pm - - - - - S 39 46 21 25 - - -
27/04:30pm - - - - - S 41 46 22 25 - - -
27/04:00pm - - - - - S 43 46 23 25 - - -
27/03:30pm - - - - - S 39 46 21 25 - - -
27/03:00pm - - - - - SSE 32 39 17 21 - - -
27/02:30pm - - - - - S 28 33 15 18 - - -
27/02:00pm - - - - - SSE 28 32 15 17 - - -
27/01:30pm - - - - - SSE 22 28 12 15 - - -
27/01:00pm - - - - - SSE 24 30 13 16 - - -
27/12:30pm - - - - - SSE 20 28 11 15 - - -
27/12:00pm - - - - - SSE 20 26 11 14 - - -
27/11:30am - - - - - SSE 20 28 11 15 - - -
27/11:00am - - - - - SSE 24 32 13 17 - - -
27/10:30am - - - - - SSE 24 32 13 17 - - -
27/10:00am - - - - - SSE 30 39 16 21 - - -
27/09:30am - - - - - SE 30 41 16 22 - - -
27/09:00am - - - - - SSE 33 43 18 23 - - -
27/08:30am - - - - - ESE 30 41 16 22 - - -
27/08:00am - - - - - SE 30 35 16 19 - - -
27/07:30am - - - - - SE 35 46 19 25 - - -
27/07:00am - - - - - SE 30 43 16 23 - - -
27/06:30am - - - - - SE 32 43 17 23 - - -
27/06:00am - - - - - SE 30 44 16 24 - - -
27/05:30am - - - - - SE 32 44 17 24 - - -
27/05:00am - - - - - ESE 28 35 15 19 - - -
27/04:30am - - - - - SE 33 43 18 23 - - -
27/04:00am - - - - - SE 30 43 16 23 - - -
27/03:30am - - - - - SE 35 44 19 24 - - -
27/03:00am - - - - - SSE 33 41 18 22 - - -
27/02:30am - - - - - SSE 30 43 16 23 - - -
27/02:00am - - - - - SSE 32 39 17 21 - - -
27/01:30am - - - - - SSE 32 43 17 23 - - -
27/01:00am - - - - - SSE 32 43 17 23 - - -
27/12:30am - - - - - SSE 33 44 18 24 - - -
27/12:00am - - - - - SSE 35 44 19 24 - - -
 
Date/Time
EDT
Temp
°C
App
Temp
°C
Dew
Point
°C
Rel
Hum
%
Delta-T
°C
Wind Press
QNH
hPa
Press
MSL
hPa
Rain since
9am
mm
Dir  Spd
km/h
Gust
km/h
Spd
kts
Gust
kts
26/11:30pm - - - - - SSE 35 44 19 24 - - -
26/11:00pm - - - - - SSE 35 43 19 23 - - -
26/10:30pm - - - - - SSE 33 43 18 23 - - -
26/10:00pm - - - - - SSE 35 43 19 23 - - -
26/09:30pm - - - - - SSE 33 41 18 22 - - -
26/09:00pm - - - - - SSE 32 39 17 21 - - -
26/08:30pm - - - - - SSE 35 43 19 23 - - -
26/08:00pm - - - - - SSE 35 44 19 24 - - -
26/07:30pm - - - - - SSE 39 44 21 24 - - -
26/07:00pm - - - - - S 39 46 21 25 - - -
26/06:30pm - - - - - S 35 41 19 22 - - -
26/06:00pm - - - - - S 32 41 17 22 - - -
26/05:30pm - - - - - S 32 39 17 21 - - -
26/05:00pm - - - - - S 35 41 19 22 - - -
26/04:30pm - - - - - S 32 41 17 22 - - -
26/04:00pm - - - - - S 32 39 17 21 - - -
26/03:30pm - - - - - S 33 41 18 22 - - -
26/03:00pm - - - - - S 32 35 17 19 - - -
26/02:30pm - - - - - S 35 41 19 22 - - -
26/02:00pm - - - - - S 37 52 20 28 - - -
26/01:57pm - - - - - S 32 50 17 27 - - -
26/01:30pm - - - - - S 33 44 18 24 - - -
26/01:00pm - - - - - S 35 46 19 25 - - -
26/12:30pm - - - - - S 39 44 21 24 - - -
26/12:00pm - - - - - S 39 44 21 24 - - -
26/11:30am - - - - - S 39 46 21 25 - - -
26/11:00am - - - - - S 32 35 17 19 - - -
26/10:30am - - - - - S 30 35 16 19 - - -
26/10:00am - - - - - S 30 39 16 21 - - -
26/09:30am - - - - - S 32 39 17 21 - - -
26/09:00am - - - - - S 33 43 18 23 - - -
26/08:30am - - - - - S 35 43 19 23 - - -
26/08:00am - - - - - S 37 43 20 23 - - -
26/07:30am - - - - - S 32 35 17 19 - - -
26/07:00am - - - - - S 28 33 15 18 - - -
26/06:30am - - - - - S 32 35 17 19 - - -
26/06:00am - - - - - SSW 33 41 18 22 - - -
26/05:30am - - - - - S 33 39 18 21 - - -
26/05:00am - - - - - SSW 32 39 17 21 - - -
26/04:53am - - - - - WSW 20 35 11 19 - - -
26/04:30am - - - - - WSW 11 13 6 7 - - -
26/04:00am - - - - - N 7 11 4 6 - - -
26/03:30am - - - - - N 15 20 8 11 - - -
26/03:00am - - - - - N 11 15 6 8 - - -
26/02:30am - - - - - N 9 15 5 8 - - -
26/02:00am - - - - - NW 2 7 1 4 - - -
26/01:30am - - - - - NW 11 15 6 8 - - -
26/01:00am - - - - - N 15 20 8 11 - - -
26/12:30am - - - - - NNE 24 26 13 14 - - -
26/12:00am - - - - - N 9 11 5 6 - - -
 
Date/Time
EDT
Temp
°C
App
Temp
°C
Dew
Point
°C
Rel
Hum
%
Delta-T
°C
Wind Press
QNH
hPa
Press
MSL
hPa
Rain since
9am
mm
Dir  Spd
km/h
Gust
km/h
Spd
kts
Gust
kts
25/11:30pm - - - - - N 6 9 3 5 - - -
25/11:00pm - - - - - SSW 2 9 1 5 - - -
25/10:30pm - - - - - SSW 11 17 6 9 - - -
25/10:00pm - - - - - SSW 19 24 10 13 - - -
25/09:30pm - - - - - SSW 28 32 15 17 - - -
25/09:00pm - - - - - SW 33 41 18 22 - - -
25/08:30pm - - - - - SW 39 46 21 25 - - -
25/08:28pm - - - - - SSW 37 44 20 24 - - -
25/08:00pm - - - - - S 24 30 13 16 - - -
25/07:30pm - - - - - S 30 35 16 19 - - -
25/07:00pm - - - - - S 33 41 18 22 - - -
25/06:30pm - - - - - S 35 43 19 23 - - -
25/06:00pm - - - - - S 24 32 13 17 - - -
25/05:30pm - - - - - SSE 33 41 18 22 - - -
25/05:00pm - - - - - S 35 44 19 24 - - -
25/04:51pm - - - - - SSW 41 54 22 29 - - -
25/04:30pm - - - - - SSE 39 54 21 29 - - -
25/04:26pm - - - - - SSE 35 46 19 25 - - -
25/04:00pm - - - - - SSW 35 46 19 25 - - -
25/03:30pm - - - - - SSW 30 33 16 18 - - -
25/03:00pm - - - - - S 24 30 13 16 - - -
25/02:30pm - - - - - S 30 35 16 19 - - -
25/02:00pm - - - - - S 33 41 18 22 - - -
25/01:30pm - - - - - SSW 41 54 22 29 - - -
25/01:17pm - - - - - SSW 39 59 21 32 - - -
25/01:00pm - - - - - S 33 43 18 23 - - -
25/12:47pm - - - - - S 37 52 20 28 - - -
25/12:30pm - - - - - W 32 54 17 29 - - -
25/12:29pm - - - - - W 32 54 17 29 - - -
25/12:00pm - - - - - NNW 24 35 13 19 - - -
25/11:30am - - - - - NNW 33 44 18 24 - - -
25/11:28am - - - - - NNW 32 44 17 24 - - -
25/11:00am - - - - - N 35 39 19 21 - - -
25/10:30am - - - - - N 32 33 17 18 - - -
25/10:00am - - - - - N 33 41 18 22 - - -
25/09:30am - - - - - N 37 43 20 23 - - -
25/09:00am - - - - - N 39 43 21 23 - - -
25/08:30am - - - - - N 43 44 23 24 - - -
25/08:00am - - - - - N 43 46 23 25 - - -
25/07:30am - - - - - N 43 48 23 26 - - -
25/07:00am - - - - - N 39 43 21 23 - - -
25/06:30am - - - - - N 43 44 23 24 - - -
25/06:00am - - - - - N 33 39 18 21 - - -
25/05:30am - - - - - N 30 32 16 17 - - -
25/05:00am - - - - - N 30 33 16 18 - - -
25/04:30am - - - - - N 33 35 18 19 - - -
25/04:00am - - - - - N 33 35 18 19 - - -
25/03:30am - - - - - N 30 33 16 18 - - -
25/03:00am - - - - - N 28 30 15 16 - - -
25/02:30am - - - - - N 24 26 13 14 - - -
25/02:00am - - - - - N 24 26 13 14 - - -

Latest Capital City Observations: Canberra | Sydney | Melbourne | Brisbane | Adelaide | Perth | Hobart | Darwin

Other formats

Comma delimited format used in spreadsheet applications
http://www.bom.gov.au/fwo/IDV60901/IDV60901.95872.axf

JavaScript Object Notation format (JSON) in row-major order
http://www.bom.gov.au/fwo/IDV60901/IDV60901.95872.json

Data quality

Most of these data are generated automatically and are frequently updated. Quality checks on data are not normally performed. It is possible for incorrect values to appear. Refer to information at About Latest Weather Observations and please check the disclaimer before using these data.